Time;durP1;ratioP1;P1;durP2;ratioP2;P2;SDS_P1;SDS_P2;PMS_P1;PMS_P2;Temp;Humidity;BMP_temperature;BMP_pressure;BME280_temperature;BME280_humidity;BME280_pressure;Samples;Min_cycle;Max_cycle;Signal;HPM_P1;HPM_P2
2022/12/29 00:00:13;;;;;;;18.17;8.35;;;;;;;8.18;91.38;101566.75;5052008;28;20400;-65
2022/12/29 00:02:42;;;;;;;16.67;8.82;;;;;;;8.17;91.91;101570.53;5053215;28;20476;-64
2022/12/29 00:05:10;;;;;;;16.73;8.40;;;;;;;8.16;91.95;101561.53;5051981;28;20045;-64
2022/12/29 00:07:38;;;;;;;14.48;8.60;;;;;;;8.23;92.08;101557.84;5051882;28;20044;-64
2022/12/29 00:10:07;;;;;;;16.92;9.27;;;;;;;8.17;93.09;101552.28;5051851;28;20053;-65
2022/12/29 00:15:37;;;;;;;19.23;10.15;;;;;;;8.07;94.19;101533.78;5051948;28;20045;-65
2022/12/29 00:18:06;;;;;;;17.30;10.02;;;;;;;8.02;95.56;101520.06;5051963;28;20064;-64
2022/12/29 00:44:04;;;;;;;16.27;8.77;;;;;;;7.89;98.38;101537.50;5084136;28;20052;-64
2022/12/29 00:45:43;;;;;;;19.42;9.00;;;;;;;7.92;97.40;101536.22;5055807;28;20049;-65
2022/12/29 00:48:11;;;;;;;15.23;8.48;;;;;;;7.97;97.03;101536.28;5056037;28;20053;-64
2022/12/29 00:50:39;;;;;;;15.48;7.90;;;;;;;7.97;95.13;101539.03;5055452;28;20071;-64
2022/12/29 00:53:06;;;;;;;15.13;7.45;;;;;;;7.85;96.95;101535.47;5053760;28;20491;-64
2022/12/29 00:55:38;;;;;;;13.68;8.13;;;;;;;7.99;95.51;101528.72;5055270;28;20053;-65
2022/12/29 00:58:06;;;;;;;16.45;8.60;;;;;;;7.99;96.49;101525.16;5055409;28;20045;-64
2022/12/29 01:00:34;;;;;;;12.93;7.47;;;;;;;8.06;95.29;101526.69;5055178;28;20061;-64
2022/12/29 01:03:03;;;;;;;15.85;7.85;;;;;;;8.13;94.15;101531.19;5037869;28;20534;-65
2022/12/29 01:05:31;;;;;;;14.93;8.23;;;;;;;8.14;93.72;101522.78;5053983;28;20045;-65
2022/12/29 01:07:58;;;;;;;13.80;7.88;;;;;;;8.13;94.01;101526.56;5055113;28;20052;-64
2022/12/29 01:10:26;;;;;;;13.18;7.68;;;;;;;8.09;94.75;101535.44;5055071;28;20425;-64
2022/12/29 01:12:54;;;;;;;14.38;7.57;;;;;;;8.16;93.58;101536.19;5053551;28;20064;-64
2022/12/29 01:15:22;;;;;;;15.98;8.35;;;;;;;8.12;94.27;101540.44;5055545;28;20060;-64
2022/12/29 01:17:50;;;;;;;14.32;8.27;;;;;;;8.07;94.63;101536.53;5055093;28;20048;-64
2022/12/29 01:20:18;;;;;;;13.85;8.27;;;;;;;8.08;94.36;101537.38;5054945;28;20064;-64
2022/12/29 01:22:47;;;;;;;13.90;7.75;;;;;;;8.02;95.08;101541.06;5055152;28;20425;-64
2022/12/29 01:25:14;;;;;;;11.95;7.22;;;;;;;8.05;95.30;101546.00;5053541;28;20049;-64
2022/12/29 01:27:42;;;;;;;12.15;8.05;;;;;;;8.05;94.60;101529.66;5054898;28;20503;-64
2022/12/29 01:30:12;;;;;;;14.07;7.63;;;;;;;7.87;95.66;101541.53;5055463;28;20048;-64
2022/12/29 01:32:40;;;;;;;17.55;8.00;;;;;;;7.88;94.22;101535.81;5054874;28;20432;-64
2022/12/29 01:35:08;;;;;;;14.45;7.55;;;;;;;7.95;94.99;101538.44;5054548;28;20055;-64
2022/12/29 01:37:36;;;;;;;15.15;7.93;;;;;;;7.94;94.45;101534.06;5053036;28;20052;-64
2022/12/29 01:40:05;;;;;;;13.38;7.60;;;;;;;7.99;94.85;101536.91;5053297;28;20053;-64
2022/12/29 01:42:33;;;;;;;12.77;7.53;;;;;;;7.98;94.64;101546.16;5054873;28;20063;-64
2022/12/29 01:45:11;;;;;;;13.55;8.00;;;;;;;8.12;94.43;101540.44;5053079;28;20071;-65
2022/12/29 01:47:48;;;;;;;15.40;7.45;;;;;;;8.13;95.40;101553.00;5053188;28;20052;-65
2022/12/29 01:50:21;;;;;;;11.60;7.10;;;;;;;8.11;95.04;101555.97;5054311;28;20048;-64
2022/12/29 01:53:05;;;;;;;12.68;7.28;;;;;;;8.04;95.76;101550.66;5054196;28;20503;-64
2022/12/29 01:55:48;;;;;;;10.77;7.05;;;;;;;8.03;94.92;101559.06;5053605;28;20056;-64
2022/12/29 01:58:20;;;;;;;9.98;7.43;;;;;;;8.02;95.52;101552.75;5052903;28;20045;-65
2022/12/29 02:00:48;;;;;;;13.13;7.40;;;;;;;8.01;96.02;101545.66;5052480;28;20060;-64
2022/12/29 02:03:19;;;;;;;14.98;7.07;;;;;;;7.94;98.41;101536.78;5054697;28;20052;-65
2022/12/29 02:05:52;;;;;;;14.10;7.47;;;;;;;8.10;96.70;101534.38;5054152;28;20056;-65
2022/12/29 02:08:24;;;;;;;12.73;7.97;;;;;;;8.14;97.42;101525.50;5054205;28;20041;-64
2022/12/29 02:10:53;;;;;;;14.57;7.43;;;;;;;8.19;98.96;101519.31;5053965;28;20673;-64
2022/12/29 02:13:30;;;;;;;11.27;6.93;;;;;;;8.11;96.73;101508.81;5053818;28;20049;-64
2022/12/29 02:16:19;;;;;;;16.15;8.07;;;;;;;8.00;98.47;101510.47;5052420;28;20053;-65
2022/12/29 02:19:25;;;;;;;12.65;6.85;;;;;;;8.01;99.45;101510.22;5053926;28;20049;-65
2022/12/29 02:22:29;;;;;;;14.75;9.15;;;;;;;8.04;98.99;101515.22;5052229;28;20431;-64
2022/12/29 02:25:44;;;;;;;15.45;8.10;;;;;;;8.11;98.97;101511.53;5052412;28;20053;-64
2022/12/29 02:28:15;;;;;;;14.70;8.25;;;;;;;8.08;100.00;101504.66;5006838;28;20060;-64
2022/12/29 02:31:21;;;;;;;12.40;7.03;;;;;;;8.05;100.00;101513.28;5053634;28;20045;-64
2022/12/29 02:34:27;;;;;;;11.07;7.55;;;;;;;8.07;100.00;101501.09;5054042;28;20060;-65
2022/12/29 02:37:30;;;;;;;12.38;7.90;;;;;;;8.14;100.00;101500.13;5000726;28;20513;-64
2022/12/29 02:40:25;;;;;;;18.77;8.75;;;;;;;8.28;100.00;101501.53;5053771;28;20064;-64
2022/12/29 02:43:04;;;;;;;17.50;8.93;;;;;;;8.11;100.00;101504.16;5052180;28;20060;-64
2022/12/29 02:45:38;;;;;;;13.50;8.07;;;;;;;7.94;100.00;101518.53;5053926;28;20074;-64
2022/12/29 02:48:37;;;;;;;13.95;7.95;;;;;;;8.12;100.00;101507.72;5051821;28;20491;-64
2022/12/29 02:51:23;;;;;;;16.70;8.38;;;;;;;8.05;100.00;101500.50;5051885;28;20049;-64
2022/12/29 02:56:40;;;;;;;15.68;9.40;;;;;;;8.19;100.00;101494.78;5084945;28;20534;-64
2022/12/29 02:59:10;;;;;;;15.85;9.55;;;;;;;8.32;100.00;101496.41;5053112;28;20061;-64
2022/12/29 03:02:16;;;;;;;18.98;9.68;;;;;;;8.43;100.00;101489.25;5084917;28;20060;-64
2022/12/29 03:05:06;;;;;;;19.05;9.98;;;;;;;8.42;100.00;101479.41;5051671;28;20060;-64
2022/12/29 03:07:56;;;;;;;17.35;9.45;;;;;;;8.41;100.00;101477.75;5050099;28;20097;-65
2022/12/29 03:10:52;;;;;;;19.85;10.13;;;;;;;8.40;100.00;101476.91;5085101;28;20104;-64
2022/12/29 03:16:45;;;;;;;16.67;7.93;;;;;;;8.27;100.00;101472.56;5084600;28;20052;-64
2022/12/29 03:19:15;;;;;;;17.52;9.18;;;;;;;8.18;100.00;101485.75;5051463;28;20377;-65
2022/12/29 03:24:52;;;;;;;13.63;7.78;;;;;;;8.07;100.00;101501.09;5084536;28;20053;-64
2022/12/29 03:27:25;;;;;;;15.00;7.72;;;;;;;8.02;100.00;101495.53;5051414;28;20044;-64
2022/12/29 03:29:58;;;;;;;13.48;7.47;;;;;;;8.10;100.00;101477.13;5052604;28;20049;-64
2022/12/29 03:32:40;;;;;;;11.02;6.82;;;;;;;8.00;100.00;101477.75;5051177;28;20515;-64
2022/12/29 03:35:12;;;;;;;10.85;6.68;;;;;;;8.06;100.00;101472.16;5050866;28;20404;-64
2022/12/29 03:37:49;;;;;;;12.57;6.63;;;;;;;8.10;100.00;101471.66;5052289;28;20067;-64
2022/12/29 03:40:21;;;;;;;13.07;6.97;;;;;;;8.11;100.00;101470.63;5050864;28;20499;-65
2022/12/29 03:42:50;;;;;;;12.43;7.38;;;;;;;8.04;100.00;101468.03;5052388;28;20476;-64
2022/12/29 03:45:18;;;;;;;13.50;7.38;;;;;;;8.15;100.00;101463.59;5052239;28;20041;-64
2022/12/29 03:47:46;;;;;;;11.60;7.25;;;;;;;8.07;100.00;101468.38;5050924;28;20052;-64
2022/12/29 03:50:16;;;;;;;11.88;5.93;;;;;;;8.04;100.00;101465.31;5050555;28;20048;-64
2022/12/29 03:52:45;;;;;;;13.15;6.95;;;;;;;7.92;100.00;101454.44;5050985;28;20037;-64
2022/12/29 03:55:13;;;;;;;11.38;7.80;;;;;;;7.93;100.00;101461.53;5051006;28;20045;-64
2022/12/29 03:57:41;;;;;;;11.48;6.88;;;;;;;7.89;100.00;101463.94;5050821;28;20049;-64
2022/12/29 04:00:13;;;;;;;12.15;7.57;;;;;;;7.68;100.00;101469.97;5050648;28;20518;-64
2022/12/29 04:02:49;;;;;;;13.55;7.78;;;;;;;7.78;100.00;101475.66;5050296;28;20064;-64
2022/12/29 04:05:21;;;;;;;10.07;6.80;;;;;;;7.87;100.00;101479.66;5052303;28;20409;-64
2022/12/29 04:07:51;;;;;;;10.82;7.57;;;;;;;7.96;100.00;101474.69;5050048;28;20053;-64
2022/12/29 04:10:19;;;;;;;13.27;8.40;;;;;;;7.93;100.00;101475.97;5050406;28;20048;-64
2022/12/29 04:12:49;;;;;;;16.52;8.55;;;;;;;7.93;100.00;101477.91;5050284;28;20068;-64
2022/12/29 04:15:17;;;;;;;16.73;8.23;;;;;;;7.99;100.00;101468.75;5050586;28;20049;-64
2022/12/29 04:17:45;;;;;;;11.55;7.55;;;;;;;8.03;100.00;101467.19;5051933;28;20512;-64
2022/12/29 04:23:03;;;;;;;14.05;7.55;;;;;;;8.00;100.00;101473.13;5088216;28;20060;-64
2022/12/29 04:25:32;;;;;;;12.85;7.68;;;;;;;7.99;100.00;101471.47;5054661;28;20041;-64
2022/12/29 04:28:01;;;;;;;12.30;8.18;;;;;;;8.04;100.00;101478.94;5088140;28;20399;-65
2022/12/29 04:30:43;;;;;;;12.65;7.43;;;;;;;8.12;100.00;101484.00;5053948;28;20048;-64
2022/12/29 04:33:18;;;;;;;15.05;8.77;;;;;;;8.22;100.00;101490.75;5054253;28;20053;-64
2022/12/29 04:35:47;;;;;;;15.73;8.63;;;;;;;8.23;100.00;101476.03;5054155;28;20053;-64
2022/12/29 04:38:15;;;;;;;14.85;8.35;;;;;;;8.23;100.00;101465.97;5054414;28;20048;-64
2022/12/29 04:40:46;;;;;;;15.52;8.38;;;;;;;8.15;100.00;101455.41;5054078;28;20053;-64
2022/12/29 04:43:16;;;;;;;13.82;7.22;;;;;;;8.00;100.00;101459.50;5054000;28;20056;-64
2022/12/29 04:46:03;;;;;;;15.25;8.00;;;;;;;8.04;100.00;101465.31;5055536;28;20053;-64
2022/12/29 04:48:54;;;;;;;14.70;7.65;;;;;;;8.06;100.00;101476.78;5053965;28;20049;-64
2022/12/29 04:51:28;;;;;;;13.43;8.15;;;;;;;8.04;100.00;101471.59;5056132;28;20057;-64
2022/12/29 04:53:56;;;;;;;17.38;8.18;;;;;;;8.13;100.00;101476.66;5054108;28;20060;-64
2022/12/29 04:56:26;;;;;;;12.00;7.80;;;;;;;8.03;100.00;101467.19;5054141;28;20396;-64
2022/12/29 04:58:54;;;;;;;15.40;8.15;;;;;;;8.04;100.00;101481.66;5053911;28;20056;-64
2022/12/29 05:01:22;;;;;;;13.07;8.07;;;;;;;7.92;100.00;101492.59;5054165;28;20052;-64
2022/12/29 05:03:51;;;;;;;15.35;8.07;;;;;;;7.80;100.00;101490.72;5053861;28;20052;-64
2022/12/29 05:06:20;;;;;;;14.82;7.90;;;;;;;8.04;100.00;101479.78;5054214;28;20056;-64
2022/12/29 05:08:49;;;;;;;13.00;7.80;;;;;;;8.16;100.00;101459.84;5053432;28;20053;-64
2022/12/29 05:11:17;;;;;;;16.10;8.40;;;;;;;8.02;100.00;101454.63;5055367;28;20491;-64
2022/12/29 05:13:48;;;;;;;12.70;7.15;;;;;;;8.06;100.00;101463.16;5053978;28;20408;-64
2022/12/29 05:16:17;;;;;;;11.07;6.97;;;;;;;8.15;100.00;101469.06;5053779;28;20049;-64
2022/12/29 05:18:45;;;;;;;13.60;7.22;;;;;;;8.01;100.00;101474.78;5053781;28;20049;-64
2022/12/29 05:21:13;;;;;;;10.68;7.43;;;;;;;7.99;100.00;101471.47;5053414;28;20052;-64
2022/12/29 05:23:43;;;;;;;11.52;7.13;;;;;;;8.08;100.00;101469.22;5053359;28;20412;-64
2022/12/29 05:26:11;;;;;;;12.93;6.93;;;;;;;8.12;100.00;101475.00;5053837;28;20045;-64
2022/12/29 05:28:53;;;;;;;13.63;7.20;;;;;;;7.84;100.00;101491.06;5053194;28;20064;-64
2022/12/29 05:31:22;;;;;;;12.95;6.45;;;;;;;7.89;100.00;101493.06;5052423;28;20056;-64
2022/12/29 05:33:50;;;;;;;14.52;7.00;;;;;;;7.76;100.00;101500.44;5052922;28;20056;-64
2022/12/29 05:36:19;;;;;;;11.55;6.63;;;;;;;7.79;100.00;101491.75;5055378;28;20451;-64
2022/12/29 05:38:50;;;;;;;11.35;6.18;;;;;;;7.81;100.00;101496.97;5053020;28;20060;-64
2022/12/29 05:41:18;;;;;;;11.77;6.40;;;;;;;7.78;100.00;101487.38;5053617;28;20049;-64
2022/12/29 05:44:07;;;;;;;7.60;5.60;;;;;;;7.78;100.00;101481.13;5053247;28;20049;-64
2022/12/29 05:46:55;;;;;;;13.50;6.90;;;;;;;7.81;100.00;101483.34;5046899;28;20053;-64
2022/12/29 05:49:47;;;;;;;10.63;6.18;;;;;;;7.82;100.00;101487.72;5086448;28;20052;-64
2022/12/29 05:52:25;;;;;;;10.15;5.90;;;;;;;7.78;100.00;101501.00;5053489;28;20049;-64
2022/12/29 05:54:53;;;;;;;11.38;6.68;;;;;;;7.74;100.00;101486.22;5053027;28;20399;-64
2022/12/29 05:57:23;;;;;;;10.57;6.35;;;;;;;7.73;100.00;101494.63;5052542;28;20488;-64
2022/12/29 05:59:59;;;;;;;8.70;5.90;;;;;;;7.70;100.00;101495.94;5052493;28;20049;-64
2022/12/29 06:02:30;;;;;;;13.95;5.97;;;;;;;7.63;100.00;101489.78;5053787;28;20056;-64
2022/12/29 06:04:58;;;;;;;13.35;6.20;;;;;;;7.57;100.00;101485.28;5052635;28;20053;-64
2022/12/29 06:07:26;;;;;;;11.60;6.55;;;;;;;7.55;100.00;101481.94;5052194;28;20045;-64
2022/12/29 06:09:54;;;;;;;12.30;5.97;;;;;;;7.56;100.00;101483.59;5052697;28;20045;-64
2022/12/29 06:12:22;;;;;;;10.13;5.47;;;;;;;7.57;100.00;101486.09;5036199;28;20049;-64
2022/12/29 06:14:53;;;;;;;10.52;6.18;;;;;;;7.48;100.00;101482.91;5085959;28;20061;-64
2022/12/29 06:17:22;;;;;;;10.45;6.43;;;;;;;7.46;100.00;101486.91;5052091;28;20041;-64
2022/12/29 06:19:51;;;;;;;11.13;6.00;;;;;;;7.45;100.00;101488.00;5052471;28;20057;-64
2022/12/29 06:22:20;;;;;;;10.23;6.10;;;;;;;7.38;100.00;101488.13;5052022;28;20049;-64
2022/12/29 06:24:48;;;;;;;9.68;5.55;;;;;;;7.36;100.00;101482.91;5051939;28;20495;-64
2022/12/29 06:27:15;;;;;;;10.63;6.65;;;;;;;7.47;100.00;101475.78;5052299;28;20365;-64
2022/12/29 06:29:44;;;;;;;11.88;7.13;;;;;;;7.41;100.00;101479.47;5051765;28;20073;-64
2022/12/29 06:32:11;;;;;;;13.90;6.80;;;;;;;7.45;100.00;101471.66;5053683;28;20049;-64
2022/12/29 06:34:45;;;;;;;11.88;6.82;;;;;;;7.52;100.00;101470.47;5052027;28;20048;-64
2022/12/29 06:37:16;;;;;;;13.57;6.88;;;;;;;7.55;100.00;101474.63;5051797;28;20209;-64
2022/12/29 06:39:44;;;;;;;14.98;7.35;;;;;;;7.63;100.00;101474.25;5051606;28;20041;-64
2022/12/29 06:42:14;;;;;;;11.95;6.22;;;;;;;7.65;100.00;101461.22;5051744;28;20064;-64
2022/12/29 06:44:41;;;;;;;9.27;6.72;;;;;;;7.68;100.00;101475.44;5053138;28;20048;-64
2022/12/29 06:47:10;;;;;;;11.25;7.05;;;;;;;7.67;100.00;101474.59;5053283;28;20049;-64
2022/12/29 06:49:38;;;;;;;14.88;7.25;;;;;;;7.77;100.00;101479.47;5053251;28;20480;-64
2022/12/29 06:52:06;;;;;;;14.35;8.35;;;;;;;7.76;100.00;101480.50;5053375;28;20056;-64
2022/12/29 06:54:39;;;;;;;10.60;7.47;;;;;;;7.66;100.00;101487.41;5053325;28;20060;-64
2022/12/29 06:57:07;;;;;;;14.10;7.93;;;;;;;7.69;100.00;101491.56;5052938;28;20057;-64
2022/12/29 06:59:35;;;;;;;11.40;6.82;;;;;;;7.65;100.00;101493.94;5052894;28;20041;-64
2022/12/29 07:02:03;;;;;;;12.00;6.55;;;;;;;7.60;100.00;101484.78;5052897;28;20052;-64
2022/12/29 07:04:31;;;;;;;9.55;6.32;;;;;;;7.65;100.00;101474.00;5053003;28;20388;-64
2022/12/29 07:07:00;;;;;;;9.52;6.57;;;;;;;7.63;100.00;101481.59;5052897;28;20060;-64
2022/12/29 07:09:27;;;;;;;10.30;6.22;;;;;;;7.66;100.00;101483.84;5053081;28;20056;-64
2022/12/29 07:11:55;;;;;;;8.48;6.25;;;;;;;7.74;100.00;101486.22;5053076;28;20060;-64
2022/12/29 07:14:23;;;;;;;9.77;6.38;;;;;;;7.68;100.00;101492.63;5052770;28;20056;-65
2022/12/29 07:16:51;;;;;;;11.88;7.82;;;;;;;7.66;100.00;101495.56;5052678;28;20049;-64
2022/12/29 07:19:19;;;;;;;10.55;6.75;;;;;;;7.74;100.00;101491.66;5052799;28;20401;-64
2022/12/29 07:21:47;;;;;;;11.85;7.22;;;;;;;7.88;100.00;101491.41;5052793;28;20060;-64
2022/12/29 07:24:15;;;;;;;12.90;7.30;;;;;;;8.01;100.00;101491.13;5052678;28;20056;-64
2022/12/29 07:26:43;;;;;;;9.77;6.55;;;;;;;7.86;100.00;101493.56;5050968;28;20048;-64
2022/12/29 07:29:10;;;;;;;13.80;6.90;;;;;;;7.97;100.00;101500.84;5052664;28;20049;-63
2022/12/29 07:31:38;;;;;;;12.15;7.28;;;;;;;7.95;100.00;101497.56;5052563;28;20044;-63
2022/12/29 07:34:08;;;;;;;13.02;7.57;;;;;;;7.92;100.00;101495.31;5052777;28;20055;-63
2022/12/29 07:36:36;;;;;;;16.48;8.50;;;;;;;7.89;100.00;101501.22;5052360;28;20349;-63
2022/12/29 07:39:04;;;;;;;18.63;8.50;;;;;;;7.82;100.00;101489.63;5052160;28;20049;-63
2022/12/29 07:41:32;;;;;;;12.48;7.72;;;;;;;7.86;100.00;101488.09;5052464;28;20056;-63
2022/12/29 07:44:02;;;;;;;18.00;8.23;;;;;;;8.09;100.00;101483.66;5050559;28;20049;-63
2022/12/29 07:46:50;;;;;;;15.32;8.45;;;;;;;7.99;100.00;101487.84;5043715;28;20044;-63
2022/12/29 07:49:23;;;;;;;14.13;8.48;;;;;;;8.02;100.00;101492.78;5051998;28;20049;-63
2022/12/29 07:51:51;;;;;;;12.18;7.40;;;;;;;7.93;100.00;101491.53;5051902;28;20060;-63
2022/12/29 07:54:19;;;;;;;15.45;8.02;;;;;;;7.95;100.00;101500.28;5051050;28;20045;-64
2022/12/29 07:56:47;;;;;;;13.15;7.05;;;;;;;7.88;100.00;101494.94;5050646;28;20045;-64
2022/12/29 07:59:15;;;;;;;14.88;7.53;;;;;;;7.99;100.00;101493.28;5051815;28;20064;-64
2022/12/29 08:01:43;;;;;;;13.43;7.35;;;;;;;7.79;100.00;101510.84;5052103;28;20049;-64
2022/12/29 08:04:11;;;;;;;11.50;7.15;;;;;;;7.91;100.00;101526.34;5051652;28;20179;-63
2022/12/29 08:06:39;;;;;;;13.63;7.47;;;;;;;8.23;100.00;101520.50;5051853;28;20049;-64
2022/12/29 08:09:08;;;;;;;14.85;8.55;;;;;;;8.36;100.00;101524.03;5051749;28;20045;-64
2022/12/29 08:11:44;;;;;;;14.25;7.82;;;;;;;8.51;98.22;101527.03;5052286;28;20045;-64
2022/12/29 08:14:12;;;;;;;9.80;6.55;;;;;;;8.49;99.29;101525.66;5051934;28;20392;-64
2022/12/29 08:16:40;;;;;;;11.57;8.30;;;;;;;8.43;98.49;101524.72;5051608;28;20041;-64
2022/12/29 08:19:11;;;;;;;17.20;8.73;;;;;;;8.55;98.12;101533.72;5051607;28;20056;-64
2022/12/29 08:21:39;;;;;;;13.50;7.45;;;;;;;8.61;98.90;101529.19;5051469;28;20056;-64
2022/12/29 08:24:08;;;;;;;13.73;7.75;;;;;;;8.72;100.00;101527.47;5051412;28;20049;-64
2022/12/29 08:26:36;;;;;;;13.07;7.85;;;;;;;8.70;100.00;101535.09;5051378;28;20064;-64
2022/12/29 08:29:04;;;;;;;11.55;7.15;;;;;;;8.75;100.00;101537.91;5051558;28;20041;-64
2022/12/29 08:31:31;;;;;;;17.25;8.20;;;;;;;8.70;100.00;101540.56;5051798;28;20060;-64
2022/12/29 08:34:01;;;;;;;15.25;8.23;;;;;;;8.65;100.00;101554.91;5051542;28;20045;-64
2022/12/29 08:36:30;;;;;;;16.23;7.68;;;;;;;8.73;100.00;101545.50;5051421;28;20434;-64
2022/12/29 08:38:58;;;;;;;13.43;8.07;;;;;;;8.81;100.00;101549.75;5051492;28;20400;-64
2022/12/29 08:41:26;;;;;;;12.70;7.93;;;;;;;8.86;100.00;101560.78;5051680;28;20041;-64
2022/12/29 08:43:54;;;;;;;15.48;8.43;;;;;;;8.78;100.00;101569.34;5051685;28;20056;-64
2022/12/29 08:46:21;;;;;;;15.52;8.63;;;;;;;8.67;100.00;101568.31;5051177;28;20057;-64
2022/12/29 08:48:50;;;;;;;15.68;8.35;;;;;;;8.57;100.00;101558.84;5051350;28;20053;-64
2022/12/29 08:51:18;;;;;;;14.00;9.02;;;;;;;8.72;100.00;101563.81;5051602;28;20064;-64
2022/12/29 08:53:52;;;;;;;18.98;10.45;;;;;;;8.71;100.00;101564.84;5051503;28;20397;-64
2022/12/29 08:56:20;;;;;;;17.38;9.05;;;;;;;8.69;99.70;101566.16;5050184;28;20484;-64
2022/12/29 08:58:52;;;;;;;16.48;9.05;;;;;;;8.53;95.44;101565.88;5049940;28;20048;-64
2022/12/29 09:01:21;;;;;;;16.08;8.95;;;;;;;8.61;94.57;101572.84;5049635;28;20057;-64
2022/12/29 09:03:50;;;;;;;19.30;9.10;;;;;;;8.74;94.93;101569.84;5051535;28;20489;-64
2022/12/29 09:06:38;;;;;;;15.15;8.68;;;;;;;8.65;92.75;101562.28;5054983;28;20049;-64
2022/12/29 09:09:07;;;;;;;17.25;8.88;;;;;;;8.69;93.33;101567.00;5055191;28;20072;-64
2022/12/29 09:11:35;;;;;;;14.27;7.97;;;;;;;8.62;95.83;101549.09;5054962;28;20060;-64
2022/12/29 09:14:04;;;;;;;15.38;7.47;;;;;;;8.55;96.97;101552.81;5055098;28;20484;-64
2022/12/29 09:16:32;;;;;;;13.90;8.20;;;;;;;8.55;95.95;101557.47;5054746;28;20057;-64
2022/12/29 09:19:00;;;;;;;12.15;8.07;;;;;;;8.58;96.80;101559.69;5055223;28;20052;-64
2022/12/29 09:21:28;;;;;;;15.98;9.43;;;;;;;8.75;95.05;101559.72;5054638;28;20400;-64
2022/12/29 09:23:56;;;;;;;20.48;11.77;;;;;;;8.67;94.84;101562.84;5054847;28;20040;-64
2022/12/29 09:26:24;;;;;;;20.00;11.43;;;;;;;8.74;95.77;101555.34;5054759;28;20064;-64
2022/12/29 09:28:53;;;;;;;19.42;10.25;;;;;;;8.90;96.14;101559.19;5054307;28;20053;-64
2022/12/29 09:31:21;;;;;;;16.92;10.25;;;;;;;9.03;96.77;101549.06;5054754;28;20045;-64
2022/12/29 09:33:49;;;;;;;18.38;10.25;;;;;;;8.99;98.43;101535.91;5054495;28;20049;-64
2022/12/29 09:36:17;;;;;;;14.90;9.05;;;;;;;8.89;98.07;101543.88;5054678;28;20063;-64
2022/12/29 09:38:45;;;;;;;15.20;9.82;;;;;;;9.05;99.78;101555.09;5054782;28;20053;-64
2022/12/29 09:41:37;;;;;;;17.65;10.93;;;;;;;9.20;98.44;101543.63;5054453;28;20041;-64
2022/12/29 09:44:05;;;;;;;24.83;12.88;;;;;;;9.13;99.21;101539.16;5053718;28;20057;-64
2022/12/29 09:46:46;;;;;;;25.38;13.38;;;;;;;9.24;99.10;101548.34;5054861;28;20416;-64
2022/12/29 09:49:43;;;;;;;20.33;11.45;;;;;;;8.86;100.00;101555.31;5054279;28;20041;-63
2022/12/29 09:52:18;;;;;;;17.88;10.02;;;;;;;9.18;100.00;101548.50;5053710;28;20049;-63
2022/12/29 09:54:53;;;;;;;18.30;10.55;;;;;;;9.20;100.00;101558.13;5054498;28;20510;-63
2022/12/29 09:57:44;;;;;;;23.58;11.10;;;;;;;9.46;100.00;101557.69;5054105;28;20064;-63
2022/12/29 10:00:18;;;;;;;22.27;11.65;;;;;;;9.20;100.00;101538.16;5053966;28;20411;-63
2022/12/29 10:02:50;;;;;;;;;;;;;;;9.18;100.00;101546.59;5054139;28;20052;-63
2022/12/29 10:05:27;;;;;;;22.13;11.82;;;;;;;8.99;100.00;101535.06;5054644;28;19920;-63
2022/12/29 10:08:16;;;;;;;24.05;11.07;;;;;;;9.41;100.00;101544.78;5054109;28;20045;-63
2022/12/29 10:10:53;;;;;;;22.95;11.45;;;;;;;9.56;100.00;101546.94;5054129;28;20400;-63
2022/12/29 10:13:28;;;;;;;19.73;11.52;;;;;;;9.37;100.00;101541.72;5053796;28;20492;-63
2022/12/29 10:16:05;;;;;;;20.17;11.38;;;;;;;9.48;100.00;101539.16;5053327;28;20400;-63
2022/12/29 10:19:06;;;;;;;20.13;10.82;;;;;;;9.58;100.00;101531.09;5053717;28;20049;-63
2022/12/29 10:21:42;;;;;;;24.05;12.13;;;;;;;9.90;100.00;101522.31;5053817;28;20044;-63
2022/12/29 10:24:12;;;;;;;20.92;11.57;;;;;;;9.98;100.00;101539.34;5053523;28;20056;-63
2022/12/29 10:26:42;;;;;;;22.85;12.00;;;;;;;10.29;98.29;101523.31;5052065;28;20049;-63
2022/12/29 10:29:21;;;;;;;21.52;11.32;;;;;;;10.05;98.87;101518.09;5054166;28;20060;-62
2022/12/29 10:32:01;;;;;;;26.65;13.02;;;;;;;9.94;97.81;101526.16;5053832;28;20057;-62
2022/12/29 10:34:38;;;;;;;27.88;12.85;;;;;;;10.43;96.24;101515.59;5053432;28;20057;-63
2022/12/29 10:37:21;;;;;;;20.58;11.70;;;;;;;10.82;94.02;101509.16;5053403;28;20120;-63
2022/12/29 10:39:55;;;;;;;19.30;11.35;;;;;;;11.10;94.26;101488.88;5053334;28;20041;-63
2022/12/29 10:42:27;;;;;;;23.17;12.75;;;;;;;10.91;92.34;101499.41;5053387;28;20060;-63
2022/12/29 10:44:56;;;;;;;24.75;12.90;;;;;;;10.74;91.81;101500.34;5053037;28;20060;-63
2022/12/29 10:47:31;;;;;;;22.42;12.88;;;;;;;10.68;93.54;101492.31;5051714;28;20057;-63
2022/12/29 10:50:00;;;;;;;;;;;;;;;10.79;93.81;101488.59;5053654;28;20057;-63
2022/12/29 10:52:30;;;;;;;27.33;13.13;;;;;;;10.57;94.78;101494.13;5053071;28;20295;-63
2022/12/29 10:55:32;;;;;;;25.35;13.27;;;;;;;10.61;94.18;101495.28;5052942;28;20377;-63
2022/12/29 10:58:05;;;;;;;27.90;14.30;;;;;;;10.79;94.23;101496.00;5053028;28;20049;-63
2022/12/29 11:00:33;;;;;;;25.88;13.63;;;;;;;10.74;96.09;101492.13;5052877;28;20488;-63
2022/12/29 11:03:08;;;;;;;24.85;13.20;;;;;;;10.82;93.68;101484.53;5053085;28;20053;-63
2022/12/29 11:05:54;;;;;;;26.63;14.73;;;;;;;10.89;94.07;101479.66;5053086;28;20515;-62
2022/12/29 11:08:31;;;;;;;25.92;14.20;;;;;;;10.95;93.64;101481.34;5053043;28;20045;-63
2022/12/29 11:11:07;;;;;;;32.88;15.98;;;;;;;10.63;93.79;101484.88;5053027;28;20053;-63
2022/12/29 11:13:57;;;;;;;34.63;17.20;;;;;;;10.65;94.42;101476.44;5052655;28;20060;-65
2022/12/29 11:16:32;;;;;;;34.75;15.95;;;;;;;10.58;95.76;101474.72;5052513;28;20049;-65
2022/12/29 11:19:01;;;;;;;30.42;16.23;;;;;;;10.55;96.59;101464.28;5052341;28;20052;-65
2022/12/29 11:21:42;;;;;;;35.47;17.55;;;;;;;10.63;98.09;101473.94;5052571;28;20053;-65
2022/12/29 11:24:28;;;;;;;28.17;16.15;;;;;;;10.61;96.55;101465.19;5052541;28;20053;-65
2022/12/29 11:27:24;;;;;;;39.97;18.45;;;;;;;10.25;98.12;101470.19;5052248;28;20048;-65
2022/12/29 11:29:53;;;;;;;33.75;17.65;;;;;;;10.41;97.47;101479.44;5052352;28;20049;-65
2022/12/29 11:32:24;;;;;;;35.25;19.70;;;;;;;10.69;97.56;101486.59;5052389;28;20074;-66
2022/12/29 11:34:58;;;;;;;31.92;18.27;;;;;;;10.81;95.26;101488.34;5052131;28;20120;-65
2022/12/29 11:37:42;;;;;;;33.33;17.27;;;;;;;11.04;94.04;101478.16;5052764;28;20064;-65
2022/12/29 11:40:18;;;;;;;32.00;17.63;;;;;;;10.99;96.36;101468.78;5052531;28;20048;-63
2022/12/29 11:42:56;;;;;;;31.45;16.70;;;;;;;10.93;97.20;101467.09;5052515;28;20061;-63
2022/12/29 11:45:27;;;;;;;35.63;19.65;;;;;;;11.19;96.50;101464.56;5052464;28;20047;-64
2022/12/29 11:47:59;;;;;;;34.85;18.83;;;;;;;10.94;98.43;101460.53;5052341;28;20060;-63
2022/12/29 11:50:33;;;;;;;38.15;19.05;;;;;;;11.09;95.63;101459.03;5050923;28;20064;-64
2022/12/29 11:53:11;;;;;;;31.83;17.10;;;;;;;10.76;99.14;101459.03;5052266;28;20052;-63
2022/12/29 11:55:39;;;;;;;36.67;19.35;;;;;;;10.68;100.00;101465.78;5052065;28;20502;-64
2022/12/29 11:58:14;;;;;;;31.38;17.90;;;;;;;10.70;99.82;101469.06;5052036;28;20053;-63
2022/12/29 12:00:44;;;;;;;32.30;16.25;;;;;;;10.76;99.00;101469.97;5051906;28;20083;-63
2022/12/29 12:03:22;;;;;;;28.95;15.57;;;;;;;10.73;98.72;101475.94;5052492;28;20056;-63
2022/12/29 12:05:57;;;;;;;32.75;19.48;;;;;;;10.60;98.59;101460.75;5052252;28;20047;-63
2022/12/29 12:08:53;;;;;;;32.95;17.85;;;;;;;10.43;100.00;101450.75;5051653;28;20049;-63
2022/12/29 12:11:35;;;;;;;36.78;19.25;;;;;;;10.41;100.00;101446.59;5051932;28;20056;-63
2022/12/29 12:14:21;;;;;;;39.92;20.15;;;;;;;10.28;100.00;101436.88;5049968;28;20055;-63
2022/12/29 12:17:21;;;;;;;39.42;19.77;;;;;;;10.27;100.00;101418.81;5051501;28;20056;-63
2022/12/29 12:19:51;;;;;;;36.38;19.58;;;;;;;10.20;100.00;101397.13;5051841;28;20052;-63
2022/12/29 12:22:27;;;;;;;35.50;18.75;;;;;;;9.95;100.00;101402.06;5051527;28;20076;-63